Time;durP1;ratioP1;P1;durP2;ratioP2;P2;SDS_P1;SDS_P2;PMS_P1;PMS_P2;Temp;Humidity;BMP_temperature;BMP_pressure;BME280_temperature;BME280_humidity;BME280_pressure;Samples;Min_cycle;Max_cycle;Signal;HPM_P1;HPM_P2
2022/06/29 00:02:46;;;;;;;53.03;14.98;;;28.60;85.90;;;;;;5053536;28;20056;-70
2022/06/29 00:05:50;;;;;;;51.55;13.45;;;28.60;85.70;;;;;;5053173;28;20643;-69
2022/06/29 00:08:54;;;;;;;63.42;15.45;;;28.60;84.20;;;;;;5053423;28;20052;-70
2022/06/29 00:11:58;;;;;;;47.72;13.73;;;28.50;84.10;;;;;;5053276;28;20036;-70
2022/06/29 00:15:03;;;;;;;54.22;17.15;;;28.50;84.60;;;;;;5053479;28;20503;-70
2022/06/29 00:18:08;;;;;;;53.63;16.05;;;28.60;84.50;;;;;;5053094;28;20040;-70
2022/06/29 00:21:12;;;;;;;64.18;16.75;;;28.50;84.40;;;;;;5053512;28;20052;-70
2022/06/29 00:24:15;;;;;;;57.38;16.30;;;28.60;84.50;;;;;;5053170;28;20044;-70
2022/06/29 00:27:20;;;;;;;53.13;15.50;;;28.60;84.80;;;;;;5052913;28;20048;-70
2022/06/29 00:30:24;;;;;;;59.03;15.73;;;28.70;84.40;;;;;;5052283;28;20517;-70
2022/06/29 00:33:28;;;;;;;59.92;16.83;;;28.70;83.80;;;;;;5053072;28;20500;-70
2022/06/29 00:36:32;;;;;;;58.15;15.95;;;28.60;84.20;;;;;;5052425;28;20060;-70
2022/06/29 00:39:36;;;;;;;66.68;15.77;;;28.50;84.40;;;;;;5052740;28;20214;-70
2022/06/29 01:59:48;;;;;;;57.28;13.82;;;27.50;87.60;;;;;;4461062;27;1332815;-69
2022/06/29 02:02:53;;;;;;;61.13;14.05;;;27.40;87.30;;;;;;5088400;28;20047;-69
2022/06/29 02:05:57;;;;;;;55.83;14.55;;;27.20;87.60;;;;;;5088713;28;20067;-69
2022/06/29 02:09:01;;;;;;;47.83;14.05;;;27.30;87.60;;;;;;5088613;28;20039;-69
2022/06/29 02:12:05;;;;;;;49.72;14.88;;;27.30;87.80;;;;;;5088696;28;20387;-69
2022/06/29 02:15:10;;;;;;;58.10;15.23;;;27.30;88.20;;;;;;5088559;28;20047;-69
2022/06/29 02:18:14;;;;;;;41.30;13.82;;;27.40;87.70;;;;;;5088349;28;20055;-69
2022/06/29 02:21:18;;;;;;;48.50;13.75;;;27.40;87.20;;;;;;5088364;28;20036;-70
2022/06/29 02:24:22;;;;;;;53.97;13.82;;;27.50;87.00;;;;;;5088400;28;20043;-69
2022/06/29 02:27:26;;;;;;;44.53;13.43;;;27.40;86.70;;;;;;5067955;28;20048;-69
2022/06/29 02:37:15;;;;;;;52.53;14.15;;;27.30;87.20;;;;;;5067915;28;20040;-69
2022/06/29 02:40:19;;;;;;;52.75;12.63;;;27.20;87.50;;;;;;5067810;28;20059;-70
2022/06/29 02:43:24;;;;;;;48.65;14.57;;;27.20;87.30;;;;;;5067913;28;20392;-70
2022/06/29 02:46:28;;;;;;;54.28;14.75;;;27.10;87.70;;;;;;5067868;28;20048;-70
2022/06/29 02:49:32;;;;;;;58.72;13.95;;;27.00;87.90;;;;;;5067739;28;20035;-70
2022/06/29 02:52:36;;;;;;;60.17;13.95;;;27.10;87.80;;;;;;5067449;28;20044;-69
2022/06/29 02:55:40;;;;;;;43.25;12.98;;;27.00;87.60;;;;;;5067670;28;20535;-70
2022/06/29 02:58:44;;;;;;;49.38;13.55;;;27.00;87.60;;;;;;5074291;28;20063;-69
2022/06/29 03:01:48;;;;;;;47.05;13.38;;;27.00;88.00;;;;;;5087705;28;20154;-69
2022/06/29 03:04:51;;;;;;;47.70;13.80;;;27.00;88.10;;;;;;5087284;28;20048;-70
2022/06/29 03:07:55;;;;;;;51.50;13.40;;;26.90;88.30;;;;;;5087234;28;20110;-70
2022/06/29 03:10:59;;;;;;;55.35;14.00;;;27.00;88.30;;;;;;5074922;28;20500;-69
2022/06/29 03:14:03;;;;;;;48.97;14.52;;;27.00;88.50;;;;;;5074104;28;20506;-69
2022/06/29 03:17:07;;;;;;;43.50;13.50;;;27.00;88.50;;;;;;5074002;28;20048;-70
2022/06/29 03:20:13;;;;;;;49.92;12.88;;;26.90;88.80;;;;;;5074325;28;20048;-70
2022/06/29 03:23:17;;;;;;;58.55;13.65;;;26.80;88.10;;;;;;5074228;28;20523;-69
2022/06/29 03:26:21;;;;;;;46.58;12.68;;;26.80;87.60;;;;;;5073915;28;20055;-69
2022/06/29 03:29:25;;;;;;;40.33;12.55;;;26.70;87.30;;;;;;5061999;28;20055;-69
2022/06/29 03:32:29;;;;;;;36.70;11.77;;;26.70;87.10;;;;;;5073903;28;20044;-69
2022/06/29 03:35:33;;;;;;;41.88;10.45;;;26.80;86.50;;;;;;5073854;28;20127;-69
2022/06/29 03:38:37;;;;;;;51.00;12.52;;;26.80;86.20;;;;;;5073330;28;20060;-68
2022/06/29 03:41:41;;;;;;;50.97;12.88;;;26.80;86.60;;;;;;5073700;28;20514;-69
2022/06/29 03:44:45;;;;;;;54.28;13.77;;;26.70;87.70;;;;;;5073832;28;20047;-70
2022/06/29 03:47:50;;;;;;;53.33;13.98;;;26.50;88.70;;;;;;5073815;28;20505;-70
2022/06/29 03:50:54;;;;;;;56.35;13.27;;;26.50;89.30;;;;;;5073634;28;20039;-70
2022/06/29 03:53:58;;;;;;;48.47;12.60;;;26.40;89.40;;;;;;5073738;28;20039;-68
2022/06/29 03:57:02;;;;;;;49.17;12.13;;;26.60;88.40;;;;;;5073210;28;20039;-70
2022/06/29 04:00:06;;;;;;;55.88;12.35;;;26.70;88.10;;;;;;5060784;28;20613;-69
2022/06/29 04:03:19;;;;;;;50.65;11.68;;;26.90;87.20;;;;;;5073068;28;20143;-69
2022/06/29 04:06:23;;;;;;;56.70;11.80;;;27.00;87.00;;;;;;5060739;28;20051;-68
2022/06/29 04:09:27;;;;;;;53.88;11.80;;;27.20;86.20;;;;;;5073332;28;20047;-69
2022/06/29 04:12:34;;;;;;;43.13;11.65;;;27.30;85.90;;;;;;5061195;28;20039;-69
2022/06/29 04:15:38;;;;;;;53.92;12.55;;;27.40;85.30;;;;;;5073238;28;20043;-69
2022/06/29 04:18:42;;;;;;;50.20;13.50;;;27.50;85.00;;;;;;5073073;28;20591;-69
2022/06/29 04:21:48;;;;;;;41.10;12.10;;;27.60;84.80;;;;;;5072325;28;20051;-72
2022/06/29 04:24:52;;;;;;;49.00;15.10;;;27.60;84.40;;;;;;5072782;28;20043;-69
2022/06/29 04:27:56;;;;;;;49.28;14.25;;;27.70;85.10;;;;;;5072809;28;20059;-69
2022/06/29 04:31:01;;;;;;;53.50;13.80;;;27.70;84.80;;;;;;5072557;28;20048;-69
2022/06/29 04:34:05;;;;;;;46.90;13.45;;;27.80;85.20;;;;;;5072694;28;20047;-69
2022/06/29 04:37:09;;;;;;;57.88;13.68;;;27.90;85.00;;;;;;5072951;28;20494;-70
2022/06/29 04:40:13;;;;;;;48.97;14.90;;;28.00;84.80;;;;;;5072575;28;20047;-69
2022/06/29 04:43:17;;;;;;;58.58;14.98;;;28.20;84.80;;;;;;5072429;28;20399;-70
2022/06/29 04:46:21;;;;;;;43.28;12.88;;;28.20;84.50;;;;;;5059996;28;20043;-70
2022/06/29 04:49:25;;;;;;;58.70;15.90;;;28.30;84.50;;;;;;5072594;28;20035;-70
2022/06/29 04:52:29;;;;;;;66.97;15.65;;;28.40;85.10;;;;;;5072430;28;20044;-69
2022/06/29 04:55:33;;;;;;;60.55;14.27;;;28.40;85.90;;;;;;5072031;28;20040;-70
2022/06/29 04:58:37;;;;;;;54.30;15.10;;;28.50;86.00;;;;;;5048059;28;20408;-70
2022/06/29 05:01:41;;;;;;;56.13;15.38;;;28.60;87.00;;;;;;5059779;28;20644;-68
2022/06/29 05:04:45;;;;;;;56.85;14.80;;;28.60;87.80;;;;;;5072193;28;20043;-69
2022/06/29 05:07:51;;;;;;;64.47;15.98;;;28.60;88.30;;;;;;5072229;28;20040;-70
2022/06/29 05:10:55;;;;;;;54.28;15.32;;;28.80;88.00;;;;;;5072166;28;20043;-70
2022/06/29 05:13:59;;;;;;;58.50;15.32;;;29.10;88.10;;;;;;5071840;28;20396;-69
2022/06/29 05:17:04;;;;;;;74.88;24.05;;;29.20;87.80;;;;;;5072075;28;20048;-69
2022/06/29 05:20:09;;;;;;;133.32;44.50;;;29.20;87.30;;;;;;5071043;28;20510;-65
2022/06/29 05:23:13;;;;;;;98.22;32.30;;;28.90;85.90;;;;;;5071423;28;20051;-65
2022/06/29 05:26:17;;;;;;;116.97;39.58;;;28.60;86.90;;;;;;5070989;28;20044;-65
2022/06/29 05:29:21;;;;;;;114.63;39.63;;;28.30;87.40;;;;;;5070988;28;20044;-65
2022/06/29 05:32:25;;;;;;;92.97;25.27;;;28.00;89.30;;;;;;5070869;28;20510;-64
2022/06/29 05:35:33;;;;;;;73.93;22.55;;;27.80;89.50;;;;;;5070932;28;20391;-65
2022/06/29 05:38:38;;;;;;;74.47;19.52;;;27.50;90.20;;;;;;5070865;28;20055;-68
2022/06/29 05:41:42;;;;;;;71.93;19.42;;;27.50;90.50;;;;;;5071375;28;20075;-68
2022/06/29 05:44:46;;;;;;;81.10;18.52;;;27.60;90.70;;;;;;5070888;28;20391;-69
2022/06/29 05:47:51;;;;;;;103.78;22.50;;;27.70;91.60;;;;;;5069499;28;20047;-67
2022/06/29 05:50:54;;;;;;;60.15;16.58;;;27.90;91.80;;;;;;5070501;28;20514;-69
2022/06/29 05:53:58;;;;;;;65.65;16.02;;;28.00;92.30;;;;;;5069009;28;20110;-68
2022/06/29 05:57:03;;;;;;;68.63;16.88;;;28.10;92.90;;;;;;5069742;28;20036;-69
2022/06/29 06:00:07;;;;;;;60.90;15.30;;;28.50;91.70;;;;;;5057324;28;20431;-68
2022/06/29 06:03:18;;;;;;;;;;;28.80;90.60;;;;;;5070965;28;20044;-68
2022/06/29 06:06:22;;;;;;;74.30;14.35;;;28.90;86.00;;;;;;5070603;28;20409;-68
2022/06/29 06:09:27;;;;;;;56.05;12.20;;;29.10;84.30;;;;;;5071195;28;20107;-68
2022/06/29 06:12:34;;;;;;;53.97;13.63;;;29.50;81.80;;;;;;5058308;28;20040;-69
2022/06/29 06:15:38;;;;;;;57.28;13.13;;;29.90;81.10;;;;;;5070738;28;20048;-68
2022/06/29 06:18:42;;;;;;;61.97;13.13;;;30.10;79.90;;;;;;5070707;28;20063;-68
2022/06/29 06:21:46;;;;;;;53.90;13.05;;;30.30;80.50;;;;;;5071080;28;20051;-69
2022/06/29 06:24:50;;;;;;;69.82;14.07;;;30.40;81.30;;;;;;5070832;28;20075;-68
2022/06/29 06:27:54;;;;;;;46.67;12.15;;;30.40;81.30;;;;;;5070881;28;20043;-69
2022/06/29 06:30:58;;;;;;;51.97;13.57;;;30.60;80.80;;;;;;5070865;28;20048;-67
2022/06/29 06:34:02;;;;;;;62.45;12.38;;;30.80;80.40;;;;;;5071031;28;20060;-68
2022/06/29 06:37:06;;;;;;;60.20;12.65;;;31.00;81.40;;;;;;5070989;28;20048;-69
2022/06/29 06:43:33;;;;;;;55.05;12.32;;;31.50;80.70;;;;;;5070723;28;20056;-68
2022/06/29 06:46:37;;;;;;;65.72;12.65;;;31.70;79.90;;;;;;5073842;28;20408;-68
2022/06/29 06:49:41;;;;;;;73.50;15.98;;;31.70;81.10;;;;;;5074044;28;20490;-68
2022/06/29 06:52:46;;;;;;;52.22;13.02;;;31.60;81.80;;;;;;5074350;28;20044;-67
2022/06/29 06:55:50;;;;;;;47.92;12.48;;;31.60;81.70;;;;;;5074546;28;20040;-67
2022/06/29 06:58:54;;;;;;;58.15;13.43;;;31.50;82.10;;;;;;5074001;28;20055;-66
2022/06/29 07:01:58;;;;;;;43.00;11.93;;;31.40;82.80;;;;;;5073890;28;20047;-67
2022/06/29 07:05:03;;;;;;;61.65;14.38;;;31.60;82.50;;;;;;5074385;28;20091;-67
2022/06/29 07:08:07;;;;;;;53.13;13.63;;;32.00;81.70;;;;;;5073747;28;20055;-67
2022/06/29 07:11:11;;;;;;;51.03;12.77;;;32.00;81.60;;;;;;5073803;28;20040;-67
2022/06/29 07:14:15;;;;;;;60.03;13.27;;;32.30;81.10;;;;;;5073368;28;20043;-69
2022/06/29 07:17:19;;;;;;;50.58;12.25;;;32.60;80.50;;;;;;5073672;28;20039;-67
2022/06/29 07:20:28;;;;;;;49.63;12.23;;;32.70;79.90;;;;;;5061135;28;20059;-68
2022/06/29 07:23:32;;;;;;;70.10;14.35;;;32.70;79.90;;;;;;5073841;28;20040;-69
2022/06/29 07:26:36;;;;;;;61.33;13.77;;;32.70;79.80;;;;;;5073773;28;20392;-68
2022/06/29 07:29:40;;;;;;;56.20;13.65;;;32.30;80.10;;;;;;5073495;28;20047;-67
2022/06/29 07:32:44;;;;;;;51.28;12.18;;;32.10;80.60;;;;;;5073983;28;20043;-68
2022/06/29 07:35:48;;;;;;;50.50;13.45;;;32.10;81.30;;;;;;5074447;28;20043;-70
2022/06/29 07:38:52;;;;;;;43.75;12.65;;;32.20;80.20;;;;;;5073596;28;20055;-67
2022/06/29 07:41:57;;;;;;;63.42;12.25;;;32.10;80.90;;;;;;5073537;28;20044;-69
2022/06/29 07:45:04;;;;;;;58.47;12.88;;;32.40;80.90;;;;;;5061100;28;20054;-67
2022/06/29 07:48:08;;;;;;;46.08;11.00;;;32.80;80.60;;;;;;5073295;28;20036;-67
2022/06/29 07:51:12;;;;;;;43.78;10.20;;;32.90;78.70;;;;;;5073427;28;20047;-67
2022/06/29 07:54:16;;;;;;;46.08;9.30;;;32.60;78.10;;;;;;5073476;28;20050;-68
2022/06/29 07:57:20;;;;;;;38.72;9.85;;;32.60;78.30;;;;;;5060491;28;20060;-68
2022/06/29 08:00:26;;;;;;;38.85;8.85;;;32.90;77.50;;;;;;5073089;28;20056;-68
2022/06/29 08:03:31;;;;;;;39.70;9.02;;;33.10;77.40;;;;;;5060596;28;20036;-66
2022/06/29 08:06:35;;;;;;;41.80;9.20;;;33.50;76.60;;;;;;5072662;28;20043;-67
2022/06/29 08:09:39;;;;;;;33.42;8.70;;;33.80;75.80;;;;;;5073186;28;20043;-67
2022/06/29 08:12:43;;;;;;;54.88;10.70;;;34.00;75.60;;;;;;5073179;28;20047;-67
2022/06/29 08:15:47;;;;;;;53.22;10.18;;;34.20;75.50;;;;;;5072863;28;20047;-68
2022/06/29 08:18:51;;;;;;;44.63;9.48;;;34.40;74.70;;;;;;5072600;28;20044;-67
2022/06/29 08:21:55;;;;;;;40.05;9.50;;;34.80;74.60;;;;;;5072913;28;20211;-66
2022/06/29 08:24:59;;;;;;;44.03;10.02;;;35.70;71.60;;;;;;5072424;28;20059;-66
2022/06/29 08:28:05;;;;;;;33.42;8.23;;;36.30;69.50;;;;;;5072552;28;20047;-69
2022/06/29 08:31:09;;;;;;;42.38;9.00;;;36.80;70.10;;;;;;5072549;28;20392;-67
2022/06/29 08:34:16;;;;;;;44.38;8.38;;;37.50;68.30;;;;;;5072148;28;20052;-67
2022/06/29 08:37:20;;;;;;;41.38;8.32;;;38.30;66.00;;;;;;5072661;28;20040;-68
2022/06/29 08:40:26;;;;;;;58.05;11.27;;;38.60;66.00;;;;;;5072169;28;20055;-71
2022/06/29 08:43:31;;;;;;;50.47;9.77;;;38.80;65.10;;;;;;5060141;28;20063;-66
2022/06/29 08:46:35;;;;;;;35.85;8.73;;;39.00;63.80;;;;;;5072045;28;20526;-67
2022/06/29 08:49:44;;;;;;;43.75;9.52;;;39.20;63.50;;;;;;5060192;28;20039;-66
2022/06/29 08:52:48;;;;;;;39.17;9.52;;;39.20;63.00;;;;;;5072056;28;20400;-68
2022/06/29 08:55:58;;;;;;;51.78;11.60;;;39.10;63.10;;;;;;5059695;28;20039;-68
2022/06/29 08:59:05;;;;;;;43.92;8.43;;;39.30;62.30;;;;;;5071742;28;20064;-70
2022/06/29 09:02:11;;;;;;;53.55;9.77;;;39.40;61.50;;;;;;5072069;28;20043;-68
2022/06/29 09:05:15;;;;;;;51.10;9.27;;;39.50;61.50;;;;;;5070305;28;20054;-67
2022/06/29 09:08:19;;;;;;;37.55;8.70;;;38.90;62.40;;;;;;5069562;28;20055;-68
2022/06/29 09:11:28;;;;;;;44.28;10.32;;;38.20;63.40;;;;;;5069577;28;20454;-70
2022/06/29 09:14:33;;;;;;;36.47;8.40;;;37.60;64.50;;;;;;5070016;28;20047;-68
2022/06/29 09:17:39;;;;;;;39.53;8.85;;;37.30;64.90;;;;;;5069811;28;20051;-68
2022/06/29 09:20:44;;;;;;;46.95;9.10;;;37.10;65.50;;;;;;5072290;28;20051;-68
2022/06/29 09:23:48;;;;;;;41.60;9.35;;;37.10;65.10;;;;;;5072411;28;20047;-68
2022/06/29 09:27:00;;;;;;;34.83;7.70;;;37.20;64.50;;;;;;5071817;28;20048;-68
2022/06/29 09:30:04;;;;;;;;;;;37.20;62.90;;;;;;5060191;28;20044;-68
2022/06/29 09:33:08;;;;;;;46.90;8.88;;;37.20;63.40;;;;;;5072116;28;19931;-69
2022/06/29 09:36:18;;;;;;;43.03;8.52;;;37.20;62.60;;;;;;5059455;28;20364;-68
2022/06/29 09:39:48;;;;;;;29.92;7.32;;;37.20;63.60;;;;;;5071401;28;20115;-67
2022/06/29 09:42:52;;;;;;;33.58;8.38;;;36.90;62.80;;;;;;5071519;28;20051;-68
2022/06/29 09:46:00;;;;;;;37.33;8.18;;;36.90;64.10;;;;;;5071380;28;20059;-68
2022/06/29 09:49:05;;;;;;;35.30;8.48;;;37.00;64.20;;;;;;5071629;28;20059;-68
2022/06/29 09:52:10;;;;;;;48.53;8.50;;;37.00;63.80;;;;;;5071254;28;20048;-68
2022/06/29 09:55:15;;;;;;;32.42;7.80;;;36.90;63.70;;;;;;5071185;28;20044;-68
2022/06/29 09:58:29;;;;;;;35.35;7.97;;;36.90;64.50;;;;;;5071793;28;20051;-68
2022/06/29 10:05:06;;;;;;;41.15;8.57;;;36.80;65.40;;;;;;5070955;28;20039;-68
2022/06/29 10:08:10;;;;;;;28.48;7.38;;;36.90;65.70;;;;;;5070891;28;20495;-67
2022/06/29 10:15:14;;;;;;;30.60;7.80;;;36.80;64.90;;;;;;5070715;28;20043;-68
2022/06/29 10:18:38;;;;;;;33.95;7.47;;;36.80;65.20;;;;;;5070860;28;20051;-69
2022/06/29 10:21:42;;;;;;;37.13;8.55;;;36.80;65.50;;;;;;5075271;28;20047;-67
2022/06/29 10:25:07;;;;;;;30.23;7.53;;;36.80;65.80;;;;;;5074458;28;20048;-70
2022/06/29 10:28:19;;;;;;;37.13;8.40;;;36.70;66.30;;;;;;5074490;28;20052;-68
2022/06/29 10:31:49;;;;;;;25.95;7.90;;;36.70;65.90;;;;;;5062332;28;20047;-69
2022/06/29 10:35:07;;;;;;;28.88;7.03;;;36.60;66.40;;;;;;5062467;28;20403;-69
2022/06/29 10:38:11;;;;;;;36.08;8.45;;;36.50;67.10;;;;;;5074770;28;20115;-68
2022/06/29 10:44:59;;;;;;;22.67;6.63;;;36.50;66.60;;;;;;5074728;28;20039;-67
2022/06/29 10:48:12;;;;;;;36.97;8.15;;;36.40;66.60;;;;;;5079357;28;20058;-68
2022/06/29 10:51:17;;;;;;;30.65;8.05;;;36.30;66.70;;;;;;5074494;28;20047;-68
2022/06/29 10:54:22;;;;;;;41.45;8.80;;;36.30;67.60;;;;;;5074515;28;20044;-68
2022/06/29 10:57:26;;;;;;;29.20;8.30;;;36.30;66.70;;;;;;5062626;28;20059;-68
2022/06/29 11:00:32;;;;;;;35.67;8.75;;;36.10;67.30;;;;;;5062217;28;20411;-68
2022/06/29 11:03:38;;;;;;;38.30;9.02;;;36.00;67.50;;;;;;5074555;28;20126;-67
2022/06/29 11:13:31;;;;;;;40.88;8.93;;;35.80;67.60;;;;;;5073856;28;20047;-68
2022/06/29 11:16:36;;;;;;;22.27;6.75;;;35.80;67.00;;;;;;5073916;28;20051;-68
2022/06/29 11:19:40;;;;;;;28.05;6.82;;;35.70;67.40;;;;;;5073542;28;20047;-67
2022/06/29 11:22:51;;;;;;;24.35;6.22;;;35.60;66.90;;;;;;5074158;28;20101;-68
2022/06/29 11:25:56;;;;;;;27.80;7.30;;;35.60;67.20;;;;;;5073760;28;20044;-68
2022/06/29 11:29:02;;;;;;;26.33;7.07;;;35.70;67.40;;;;;;5073901;28;20047;-68
2022/06/29 11:32:07;;;;;;;43.88;11.52;;;35.70;66.60;;;;;;5073267;28;20052;-68
2022/06/29 11:35:14;;;;;;;44.47;8.48;;;35.60;66.70;;;;;;5073537;28;20052;-69
2022/06/29 11:38:18;;;;;;;19.98;6.80;;;35.70;67.20;;;;;;5073596;28;20035;-68
2022/06/29 11:41:25;;;;;;;36.65;8.93;;;35.60;66.50;;;;;;5073331;28;20538;-69
2022/06/29 11:44:31;;;;;;;24.27;7.45;;;35.60;67.20;;;;;;5061342;28;20048;-69
2022/06/29 11:47:35;;;;;;;39.22;8.07;;;35.60;67.00;;;;;;5073682;28;20098;-69
2022/06/29 11:50:56;;;;;;;35.97;7.15;;;35.60;66.80;;;;;;5073478;28;20039;-68
2022/06/29 11:54:06;;;;;;;30.40;8.07;;;35.60;66.10;;;;;;5074039;28;20039;-68
2022/06/29 11:57:14;;;;;;;30.70;7.32;;;35.60;66.20;;;;;;5073893;28;20043;-68
2022/06/29 12:00:24;;;;;;;31.42;7.07;;;35.60;66.90;;;;;;5060581;28;20063;-68
2022/06/29 12:03:28;;;;;;;35.10;7.65;;;35.50;66.70;;;;;;5073410;28;20044;-66
2022/06/29 12:06:37;;;;;;;36.72;7.72;;;35.50;67.30;;;;;;5061105;28;20595;-70
2022/06/29 12:09:42;;;;;;;31.20;7.32;;;35.50;67.90;;;;;;5073140;28;20051;-69
2022/06/29 12:12:47;;;;;;;20.92;6.78;;;35.40;67.30;;;;;;5060454;28;20048;-68
2022/06/29 12:15:53;;;;;;;25.17;6.72;;;35.40;67.60;;;;;;5072812;28;20039;-69
2022/06/29 12:19:00;;;;;;;28.38;7.35;;;35.30;67.20;;;;;;5072917;28;20040;-68
2022/06/29 12:22:04;;;;;;;54.38;11.63;;;35.30;67.30;;;;;;5072618;28;20056;-69
2022/06/29 12:25:09;;;;;;;31.35;6.90;;;35.30;68.10;;;;;;5072569;28;20036;-68
2022/06/29 12:28:13;;;;;;;40.75;7.35;;;35.30;68.20;;;;;;5072786;28;20047;-68
2022/06/29 12:31:17;;;;;;;37.13;7.55;;;35.20;68.60;;;;;;5060146;28;20040;-69
2022/06/29 12:34:21;;;;;;;40.47;6.93;;;35.50;67.80;;;;;;5060601;28;20051;-67
2022/06/29 12:37:25;;;;;;;30.02;6.60;;;36.30;66.10;;;;;;5072613;28;20043;-68
2022/06/29 12:40:31;;;;;;;28.83;6.22;;;36.90;64.80;;;;;;5072211;28;20055;-68
2022/06/29 12:43:35;;;;;;;34.30;6.97;;;37.40;63.70;;;;;;5071781;28;20498;-68
2022/06/29 12:46:41;;;;;;;44.28;7.38;;;37.70;63.10;;;;;;5072359;28;20071;-67
2022/06/29 12:49:45;;;;;;;27.17;6.20;;;37.80;62.50;;;;;;5072068;28;20044;-66
2022/06/29 12:52:51;;;;;;;32.40;6.95;;;37.70;62.50;;;;;;5072079;28;20051;-65
2022/06/29 12:55:55;;;;;;;26.75;6.72;;;37.60;62.30;;;;;;5071966;28;20044;-68
2022/06/29 12:58:59;;;;;;;30.80;6.75;;;37.70;62.20;;;;;;5071850;28;20052;-68
2022/06/29 13:02:03;;;;;;;47.25;8.63;;;37.70;62.30;;;;;;5072171;28;20055;-69
2022/06/29 13:05:08;;;;;;;30.20;6.65;;;37.50;61.80;;;;;;5071590;28;20040;-67
2022/06/29 13:08:13;;;;;;;34.30;6.70;;;37.50;62.00;;;;;;5071654;28;20392;-68
2022/06/29 13:11:17;;;;;;;32.67;6.65;;;37.40;62.00;;;;;;5071724;28;20052;-68
2022/06/29 13:14:21;;;;;;;47.33;7.30;;;37.50;62.50;;;;;;5072184;28;20063;-68
2022/06/29 13:17:25;;;;;;;26.85;6.38;;;37.50;61.70;;;;;;5071672;28;20043;-68
2022/06/29 13:20:29;;;;;;;34.38;6.88;;;37.40;62.10;;;;;;5059329;28;20060;-70
2022/06/29 13:23:34;;;;;;;28.55;5.90;;;37.50;62.10;;;;;;5072430;28;20490;-67
2022/06/29 13:26:38;;;;;;;25.92;6.13;;;37.60;60.50;;;;;;5071342;28;20498;-67
2022/06/29 13:29:42;;;;;;;30.02;5.72;;;37.60;61.10;;;;;;5071267;28;20047;-67
2022/06/29 13:32:46;;;;;;;25.23;6.07;;;37.40;60.90;;;;;;5071447;28;20067;-67
2022/06/29 13:35:50;;;;;;;29.60;7.63;;;37.40;61.30;;;;;;5071295;28;20048;-69
2022/06/29 13:38:54;;;;;;;37.40;8.93;;;37.60;60.80;;;;;;5058903;28;20494;-68
2022/06/29 13:42:04;;;;;;;39.72;10.65;;;37.70;60.80;;;;;;5071521;28;20063;-67
2022/06/29 13:45:08;;;;;;;33.13;8.52;;;37.50;60.10;;;;;;5071062;28;20047;-68
2022/06/29 13:48:12;;;;;;;25.02;6.93;;;37.50;61.00;;;;;;5071230;28;20047;-67
2022/06/29 13:51:17;;;;;;;29.88;8.18;;;37.50;60.80;;;;;;5071173;28;20075;-68
2022/06/29 13:54:21;;;;;;;27.27;6.97;;;37.50;59.80;;;;;;5070781;28;20044;-70
2022/06/29 13:57:25;;;;;;;40.33;7.35;;;37.40;60.00;;;;;;5071080;28;20510;-68
2022/06/29 14:00:29;;;;;;;36.53;7.63;;;37.30;60.30;;;;;;5070829;28;20052;-70
2022/06/29 14:03:33;;;;;;;34.30;7.50;;;37.30;59.70;;;;;;5070809;28;20051;-67
2022/06/29 14:06:37;;;;;;;29.98;5.70;;;37.30;58.10;;;;;;5058689;28;20043;-68
2022/06/29 14:10:09;;;;;;;26.83;5.47;;;37.00;58.90;;;;;;5058352;28;20051;-69
2022/06/29 14:13:13;;;;;;;30.33;5.53;;;37.00;59.10;;;;;;5071611;28;20051;-69
2022/06/29 14:16:17;;;;;;;26.42;5.72;;;36.80;58.30;;;;;;5071014;28;20044;-69
2022/06/29 14:19:21;;;;;;;30.92;5.05;;;36.80;58.60;;;;;;5070781;28;20400;-71
2022/06/29 14:22:25;;;;;;;25.70;5.53;;;36.80;58.40;;;;;;5058391;28;20400;-68
2022/06/29 14:25:32;;;;;;;27.92;4.40;;;37.00;58.40;;;;;;5070350;28;20506;-67
2022/06/29 14:28:35;;;;;;;44.25;7.50;;;36.90;55.10;;;;;;5070454;28;20036;-70
2022/06/29 14:31:40;;;;;;;28.02;4.90;;;36.80;56.00;;;;;;5070614;28;20056;-67
2022/06/29 14:34:48;;;;;;;33.13;6.53;;;36.70;54.40;;;;;;5070624;28;20384;-72
2022/06/29 14:37:53;;;;;;;29.02;5.22;;;36.70;53.60;;;;;;5070482;28;20183;-69
2022/06/29 14:40:57;;;;;;;18.98;4.70;;;36.60;55.30;;;;;;5070493;28;20644;-68
2022/06/29 14:44:03;;;;;;;23.55;4.13;;;36.50;54.10;;;;;;5070667;28;20048;-67
2022/06/29 14:47:07;;;;;;;22.60;5.13;;;36.70;53.70;;;;;;5070753;28;20056;-70
2022/06/29 14:50:11;;;;;;;28.70;5.07;;;36.60;53.50;;;;;;5070512;28;20399;-70
2022/06/29 14:53:15;;;;;;;18.15;4.28;;;36.40;53.50;;;;;;5058380;28;20047;-68
2022/06/29 14:56:19;;;;;;;19.67;3.75;;;36.30;53.30;;;;;;5058171;28;20665;-70
2022/06/29 14:59:23;;;;;;;19.67;3.38;;;36.30;53.30;;;;;;5070452;28;20539;-68
2022/06/29 15:02:27;;;;;;;25.73;4.65;;;36.20;51.40;;;;;;5070305;28;20123;-69
2022/06/29 15:05:32;;;;;;;35.95;4.72;;;35.70;53.20;;;;;;5070278;28;20032;-69
2022/06/29 15:08:36;;;;;;;24.10;3.83;;;35.30;53.20;;;;;;5074671;28;20040;-68
2022/06/29 15:11:42;;;;;;;21.85;3.63;;;34.90;55.70;;;;;;5075926;28;20048;-69
2022/06/29 15:14:46;;;;;;;20.27;3.10;;;34.70;56.60;;;;;;5073903;28;20048;-69
2022/06/29 15:17:50;;;;;;;17.38;3.28;;;34.40;54.90;;;;;;5073918;28;20066;-67
2022/06/29 15:20:54;;;;;;;20.58;4.10;;;34.30;55.20;;;;;;5073589;28;20506;-69
2022/06/29 15:23:58;;;;;;;16.20;3.22;;;34.20;55.40;;;;;;5073646;28;20040;-69
2022/06/29 15:27:03;;;;;;;23.00;3.85;;;34.10;53.90;;;;;;5073885;28;20055;-68
2022/06/29 15:30:07;;;;;;;33.78;4.82;;;34.10;53.00;;;;;;5073187;28;20207;-68
2022/06/29 15:33:11;;;;;;;10.45;2.47;;;33.90;55.30;;;;;;5073694;28;20039;-67
2022/06/29 15:39:39;;;;;;;14.90;2.92;;;33.80;54.60;;;;;;5061093;28;20615;-69
2022/06/29 15:42:43;;;;;;;15.73;3.67;;;33.70;55.40;;;;;;5073256;28;20055;-68
2022/06/29 15:45:47;;;;;;;20.70;3.47;;;33.90;55.10;;;;;;5060988;28;20047;-67
2022/06/29 15:48:51;;;;;;;33.10;4.85;;;34.20;53.60;;;;;;5073774;28;20055;-68
2022/06/29 15:51:55;;;;;;;23.40;4.85;;;34.80;55.40;;;;;;5060392;28;20040;-69
2022/06/29 15:58:21;;;;;;;18.17;3.50;;;36.00;54.40;;;;;;5072715;28;20479;-72
2022/06/29 16:01:25;;;;;;;19.92;3.58;;;36.50;51.70;;;;;;5073159;28;20061;-68
2022/06/29 16:04:30;;;;;;;13.93;3.38;;;36.40;52.90;;;;;;5073190;28;20035;-71
2022/06/29 16:07:34;;;;;;;15.52;3.63;;;36.60;53.20;;;;;;5073299;28;20067;-68
2022/06/29 16:10:38;;;;;;;17.27;4.72;;;37.10;52.90;;;;;;5072546;28;20043;-67
2022/06/29 16:13:42;;;;;;;16.60;4.20;;;37.10;52.50;;;;;;5073101;28;20047;-67
2022/06/29 16:16:46;;;;;;;18.98;3.70;;;36.80;54.10;;;;;;5072923;28;20039;-68
2022/06/29 16:19:51;;;;;;;17.60;3.95;;;36.50;54.20;;;;;;5072435;28;20039;-67
2022/06/29 16:22:55;;;;;;;15.73;4.72;;;36.40;56.60;;;;;;5060328;28;20043;-66
2022/06/29 16:26:01;;;;;;;23.27;4.55;;;36.50;58.10;;;;;;5049388;28;20043;-69
2022/06/29 16:29:05;;;;;;;20.30;4.53;;;36.70;58.20;;;;;;5072556;28;20051;-68
2022/06/29 16:32:10;;;;;;;23.15;4.68;;;36.60;58.40;;;;;;5072308;28;20355;-67
2022/06/29 16:35:14;;;;;;;29.65;6.00;;;36.70;58.70;;;;;;5072071;28;20059;-68
2022/06/29 16:38:18;;;;;;;20.50;4.30;;;36.60;59.50;;;;;;5059845;28;20056;-67
2022/06/29 16:41:22;;;;;;;24.08;5.32;;;36.50;58.90;;;;;;5071871;28;20059;-69
2022/06/29 16:44:26;;;;;;;22.10;4.75;;;36.30;59.30;;;;;;5059830;28;20047;-69
2022/06/29 16:47:30;;;;;;;27.13;5.15;;;36.20;57.80;;;;;;5059939;28;20052;-68
2022/06/29 16:50:33;;;;;;;20.15;4.95;;;36.00;58.20;;;;;;5059393;28;20055;-67
2022/06/29 16:53:37;;;;;;;23.08;5.10;;;35.90;60.70;;;;;;5071604;28;20079;-68
2022/06/29 16:56:41;;;;;;;24.25;5.40;;;36.00;60.60;;;;;;5071795;28;20043;-70
2022/06/29 16:59:45;;;;;;;29.45;5.70;;;36.30;60.80;;;;;;5070870;28;20051;-69
2022/06/29 17:02:49;;;;;;;22.65;5.18;;;35.70;61.90;;;;;;5071750;28;20055;-69
2022/06/29 17:05:53;;;;;;;20.30;5.65;;;34.90;64.00;;;;;;5071964;28;20043;-68
2022/06/29 17:08:57;;;;;;;31.42;6.45;;;34.10;66.40;;;;;;5072027;28;20040;-69
2022/06/29 17:12:01;;;;;;;35.50;5.70;;;33.60;68.80;;;;;;5072020;28;20059;-69
2022/06/29 17:15:06;;;;;;;26.30;5.53;;;33.20;69.90;;;;;;5059370;28;20046;-70
2022/06/29 17:18:09;;;;;;;26.27;5.28;;;32.90;69.80;;;;;;5072081;28;20051;-69
2022/06/29 17:21:13;;;;;;;32.40;6.32;;;32.70;70.60;;;;;;5058876;28;20067;-69
2022/06/29 17:24:18;;;;;;;28.27;6.13;;;32.60;71.60;;;;;;5071153;28;20380;-68
2022/06/29 17:27:22;;;;;;;34.40;5.65;;;32.40;72.00;;;;;;5071526;28;20043;-69
2022/06/29 17:30:27;;;;;;;30.88;5.97;;;32.40;72.70;;;;;;5071300;28;20490;-68
2022/06/29 17:33:30;;;;;;;34.53;6.88;;;32.30;72.90;;;;;;5071370;28;20047;-69
2022/06/29 17:36:34;;;;;;;30.33;6.75;;;32.30;74.00;;;;;;5071586;28;20044;-70
2022/06/29 17:39:38;;;;;;;33.55;7.30;;;32.20;74.10;;;;;;5071451;28;20035;-69